Time;durP1;ratioP1;P1;durP2;ratioP2;P2;SDS_P1;SDS_P2;PMS_P1;PMS_P2;Temp;Humidity;BMP_temperature;BMP_pressure;BME280_temperature;BME280_humidity;BME280_pressure;Samples;Min_cycle;Max_cycle;Signal;HPM_P1;HPM_P2
2022/11/24 00:02:01;;;;;;;8.32;3.40;;;;;;;5.71;96.91;93594.41;5071459;28;20268;-74
2022/11/24 00:04:30;;;;;;;4.50;2.75;;;;;;;5.59;97.72;93610.44;5069983;28;20306;-74
2022/11/24 00:06:57;;;;;;;5.05;2.88;;;;;;;5.57;97.51;93604.59;5059729;28;20203;-74
2022/11/24 00:09:23;;;;;;;4.60;2.50;;;;;;;5.54;97.52;93605.22;5057319;28;20262;-74
2022/11/24 00:11:50;;;;;;;7.05;3.17;;;;;;;5.49;98.09;93602.69;5063140;28;20681;-74
2022/11/24 00:14:17;;;;;;;5.53;3.03;;;;;;;5.52;98.17;93607.44;5065975;28;20650;-74
2022/11/24 00:16:44;;;;;;;9.80;4.28;;;;;;;5.57;98.58;93599.22;5062734;28;20678;-74
2022/11/24 00:19:11;;;;;;;5.93;3.03;;;;;;;5.59;97.99;93610.44;5064399;28;20660;-74
2022/11/24 00:21:39;;;;;;;1.35;1.20;;;;;;;5.76;97.10;93600.72;5059298;28;20227;-74
2022/11/24 00:24:06;;;;;;;5.22;2.55;;;;;;;5.61;97.26;93597.44;5057378;28;20203;-74
2022/11/24 00:26:36;;;;;;;5.57;2.92;;;;;;;5.67;97.96;93598.06;5061648;28;20750;-74
2022/11/24 00:29:06;;;;;;;3.38;2.50;;;;;;;5.64;98.09;93610.22;5064546;28;20900;-74
2022/11/24 00:31:35;;;;;;;4.13;2.65;;;;;;;5.71;98.22;93612.44;5060156;28;20191;-74
2022/11/24 00:34:03;;;;;;;2.90;1.88;;;;;;;5.93;97.10;93606.03;5056956;28;20259;-74
2022/11/24 00:36:33;;;;;;;3.00;1.58;;;;;;;6.14;95.36;93606.13;5060848;28;20211;-74
2022/11/24 00:39:02;;;;;;;6.70;1.70;;;;;;;6.14;95.58;93600.75;5064401;28;20616;-74
2022/11/24 00:41:30;;;;;;;4.38;1.85;;;;;;;6.07;95.83;93612.00;5050403;28;20231;-74
2022/11/24 00:43:57;;;;;;;3.67;2.40;;;;;;;6.03;96.12;93611.06;5064132;28;20203;-74
2022/11/24 00:46:25;;;;;;;4.68;2.05;;;;;;;5.97;96.65;93618.53;5061927;28;20646;-74
2022/11/24 00:48:52;;;;;;;3.08;1.63;;;;;;;5.97;96.47;93606.97;5052757;28;20196;-74
2022/11/24 00:51:21;;;;;;;7.40;2.05;;;;;;;6.04;96.86;93612.63;5050545;28;20211;-74
2022/11/24 00:53:48;;;;;;;2.47;1.80;;;;;;;6.07;96.34;93617.38;5064459;28;20641;-74
2022/11/24 00:56:16;;;;;;;4.13;1.63;;;;;;;6.24;95.53;93611.91;5064038;28;20286;-74
2022/11/24 00:58:43;;;;;;;2.60;1.75;;;;;;;6.15;95.58;93619.22;5057763;28;20800;-74
2022/11/24 01:01:12;;;;;;;2.97;1.77;;;;;;;6.08;95.97;93618.94;5056866;28;20261;-74
2022/11/24 01:03:39;;;;;;;2.00;1.38;;;;;;;6.24;95.84;93627.25;5062573;28;20265;-74
2022/11/24 01:06:08;;;;;;;4.43;1.48;;;;;;;6.34;95.21;93616.91;5063369;28;20199;-74
2022/11/24 01:08:36;;;;;;;3.05;1.40;;;;;;;6.39;94.92;93614.03;5050812;28;20757;-75
2022/11/24 01:11:11;;;;;;;1.92;1.73;;;;;;;6.34;94.96;93619.59;5063164;28;20207;-75
2022/11/24 01:13:40;;;;;;;2.15;1.50;;;;;;;6.32;95.78;93619.13;5049945;28;20245;-75
2022/11/24 01:16:14;;;;;;;3.95;1.77;;;;;;;6.17;95.52;93614.31;5063374;28;20673;-74
2022/11/24 01:18:40;;;;;;;6.80;2.33;;;;;;;6.08;95.59;93621.63;5060905;28;20688;-74
2022/11/24 01:21:07;;;;;;;2.92;1.80;;;;;;;6.02;95.70;93622.91;5056001;28;20277;-75
2022/11/24 01:23:34;;;;;;;3.97;1.38;;;;;;;6.01;95.93;93619.44;5058563;28;20196;-75
2022/11/24 01:26:04;;;;;;;1.67;1.33;;;;;;;6.07;95.84;93612.00;5049766;28;20203;-75
2022/11/24 01:28:31;;;;;;;1.67;1.15;;;;;;;6.28;96.21;93612.84;5061519;28;20191;-74
2022/11/24 01:31:00;;;;;;;3.42;1.50;;;;;;;6.18;96.05;93615.09;5051123;28;20672;-74
2022/11/24 01:33:27;;;;;;;1.08;0.93;;;;;;;6.27;96.21;93611.25;5061240;28;20296;-74
2022/11/24 01:35:54;;;;;;;2.22;1.50;;;;;;;6.20;96.12;93610.97;5055787;28;20203;-74
2022/11/24 01:38:21;;;;;;;3.35;1.55;;;;;;;6.08;97.21;93624.31;5057813;28;20231;-74
2022/11/24 01:40:48;;;;;;;1.95;1.25;;;;;;;6.08;97.60;93624.31;5055091;28;20231;-74
2022/11/24 01:43:17;;;;;;;3.80;1.25;;;;;;;6.01;98.04;93629.44;5057113;28;20207;-74
2022/11/24 01:45:46;;;;;;;2.60;1.85;;;;;;;5.92;98.21;93631.34;5049615;28;20215;-73
2022/11/24 01:48:18;;;;;;;1.33;1.23;;;;;;;5.93;98.69;93622.97;5062502;28;20287;-73
2022/11/24 01:50:46;;;;;;;5.82;2.58;;;;;;;6.13;99.20;93621.47;5057732;28;20202;-74
2022/11/24 01:53:14;;;;;;;3.72;2.25;;;;;;;6.22;98.19;93619.50;5056331;28;20204;-73
2022/11/24 01:55:41;;;;;;;5.55;2.22;;;;;;;6.17;97.45;93611.63;5060744;28;20247;-73
2022/11/24 01:58:12;;;;;;;7.53;3.55;;;;;;;6.20;97.77;93619.03;5065127;28;20249;-73
2022/11/24 02:00:42;;;;;;;8.90;4.35;;;;;;;6.22;97.82;93622.19;5060739;28;20219;-74
2022/11/24 02:03:12;;;;;;;6.05;3.13;;;;;;;6.15;98.05;93619.22;5062198;28;20250;-73
2022/11/24 02:05:43;;;;;;;5.80;1.95;;;;;;;6.27;98.92;93622.03;5059365;28;20198;-73
2022/11/24 02:08:16;;;;;;;6.45;2.10;;;;;;;6.42;98.61;93624.13;5055495;28;20810;-73
2022/11/24 02:10:46;;;;;;;3.65;2.00;;;;;;;6.54;98.11;93614.56;5058005;28;20698;-73
2022/11/24 02:13:14;;;;;;;3.13;1.67;;;;;;;6.51;97.24;93620.59;5062827;28;20237;-75
2022/11/24 02:15:40;;;;;;;9.95;2.33;;;;;;;6.59;97.09;93623.22;5061515;28;20198;-75
2022/11/24 02:18:07;;;;;;;6.30;1.88;;;;;;;6.62;97.34;93614.50;5055942;28;20207;-75
2022/11/24 02:20:35;;;;;;;3.60;1.88;;;;;;;6.73;97.27;93621.06;5057077;28;20378;-75
2022/11/24 02:23:11;;;;;;;5.47;2.67;;;;;;;6.72;96.24;93616.00;5067700;28;20191;-75
2022/11/24 02:25:49;;;;;;;4.10;2.05;;;;;;;6.88;96.14;93630.47;5056462;28;20545;-75
2022/11/24 02:28:19;;;;;;;5.85;2.38;;;;;;;6.91;95.53;93632.50;5060973;28;20200;-75
2022/11/24 02:30:46;;;;;;;5.20;1.80;;;;;;;6.87;95.21;93626.19;5063063;28;20200;-75
2022/11/24 02:33:13;;;;;;;2.92;2.13;;;;;;;6.80;95.60;93628.63;5059085;28;20251;-75
2022/11/24 02:35:40;;;;;;;4.47;2.50;;;;;;;6.61;96.16;93628.28;5056099;28;20213;-74
2022/11/24 02:38:10;;;;;;;4.35;2.60;;;;;;;6.36;95.50;93627.34;5059270;28;20200;-75
2022/11/24 02:40:37;;;;;;;5.10;1.92;;;;;;;6.12;96.71;93636.00;5062739;28;20573;-75
2022/11/24 02:43:09;;;;;;;2.28;1.70;;;;;;;6.13;97.11;93640.28;5059798;28;20211;-76
2022/11/24 02:45:37;;;;;;;5.40;1.88;;;;;;;6.30;96.95;93632.09;5051036;28;20281;-74
2022/11/24 02:48:05;;;;;;;3.63;1.70;;;;;;;6.33;96.64;93636.84;5061123;28;20234;-74
2022/11/24 02:50:33;;;;;;;3.40;1.90;;;;;;;6.39;96.40;93640.94;5050907;28;20204;-74
2022/11/24 02:52:59;;;;;;;3.10;1.95;;;;;;;6.22;96.65;93641.00;5065842;28;20616;-74
2022/11/24 02:55:26;;;;;;;2.00;1.60;;;;;;;6.03;96.48;93641.41;5059244;28;20225;-74
2022/11/24 02:57:53;;;;;;;2.80;1.38;;;;;;;5.96;97.24;93632.28;5060045;28;20440;-74
2022/11/24 03:00:20;;;;;;;3.35;1.80;;;;;;;6.07;97.74;93633.50;5072259;28;20238;-74
2022/11/24 03:02:48;;;;;;;3.72;2.20;;;;;;;6.06;98.22;93637.28;5059237;28;20651;-74
2022/11/24 03:05:15;;;;;;;5.13;2.30;;;;;;;6.10;98.59;93632.84;5052427;28;20196;-74
2022/11/24 03:07:42;;;;;;;12.20;1.85;;;;;;;6.20;98.57;93637.06;5052406;28;20663;-74
2022/11/24 03:10:09;;;;;;;3.00;2.00;;;;;;;6.27;98.37;93638.16;5052224;28;20709;-74
2022/11/24 03:12:36;;;;;;;5.45;2.17;;;;;;;6.28;98.17;93645.09;5052503;28;20609;-74
2022/11/24 03:15:03;;;;;;;4.22;1.90;;;;;;;6.33;98.28;93641.44;5052742;28;20199;-74
2022/11/24 03:17:30;;;;;;;4.70;1.92;;;;;;;6.45;98.22;93638.81;5053045;28;20269;-74
2022/11/24 03:19:59;;;;;;;6.40;2.08;;;;;;;6.59;97.66;93638.56;5064437;28;20196;-74
2022/11/24 03:22:26;;;;;;;3.97;1.98;;;;;;;6.68;97.06;93642.81;5066912;28;20226;-74
2022/11/24 03:24:53;;;;;;;2.33;1.52;;;;;;;6.61;96.53;93647.91;5064268;28;20208;-74
2022/11/24 03:27:20;;;;;;;3.17;2.05;;;;;;;6.76;96.71;93649.22;5066058;28;20206;-74
2022/11/24 03:29:46;;;;;;;4.00;1.98;;;;;;;6.85;95.76;93647.25;5060733;28;20670;-74
2022/11/24 03:32:13;;;;;;;2.35;1.40;;;;;;;6.91;95.23;93655.94;5056614;28;20405;-74
2022/11/24 03:34:40;;;;;;;2.35;1.40;;;;;;;6.88;95.24;93657.38;5061181;28;20191;-73
2022/11/24 03:37:08;;;;;;;3.70;2.25;;;;;;;6.76;95.29;93671.56;5058256;28;20196;-74
2022/11/24 03:39:35;;;;;;;4.43;2.17;;;;;;;6.55;94.94;93669.97;5063169;28;20203;-74
2022/11/24 03:42:01;;;;;;;2.72;1.98;;;;;;;6.26;96.04;93668.84;5067737;28;20316;-73
2022/11/24 03:44:28;;;;;;;2.97;2.20;;;;;;;6.29;96.64;93684.31;5063221;28;20629;-73
2022/11/24 03:46:55;;;;;;;4.30;1.80;;;;;;;6.26;96.93;93679.59;5065096;28;20195;-74
2022/11/24 03:49:22;;;;;;;2.25;1.63;;;;;;;6.45;97.19;93681.06;5061384;28;20846;-74
2022/11/24 03:51:48;;;;;;;3.75;2.50;;;;;;;6.52;96.09;93681.38;5054672;28;20200;-74
2022/11/24 03:54:16;;;;;;;2.35;1.75;;;;;;;6.58;95.66;93677.34;5062329;28;20207;-74
2022/11/24 03:56:43;;;;;;;3.95;2.17;;;;;;;6.46;96.09;93682.66;5058238;28;20203;-73
2022/11/24 03:59:10;;;;;;;3.75;1.77;;;;;;;6.60;96.22;93688.59;5060889;28;20199;-74
2022/11/24 04:01:37;;;;;;;7.35;2.17;;;;;;;6.64;96.59;93690.31;5060354;28;20220;-74
2022/11/24 04:04:04;;;;;;;3.65;2.53;;;;;;;6.61;96.41;93690.16;5051457;28;20349;-74
2022/11/24 04:06:30;;;;;;;4.03;2.33;;;;;;;6.76;95.64;93694.97;5055932;28;20195;-74
2022/11/24 04:08:57;;;;;;;5.20;2.83;;;;;;;6.84;95.11;93687.97;5060440;28;20207;-73
2022/11/24 04:14:09;;;;;;;6.13;1.85;;;;;;;6.41;96.06;93705.94;5065590;28;20557;-73
2022/11/24 04:16:36;;;;;;;4.47;2.78;;;;;;;6.13;97.50;93712.88;5063907;28;20237;-74
2022/11/24 04:19:03;;;;;;;6.38;3.13;;;;;;;5.94;98.96;93726.66;5065289;28;20199;-73
2022/11/24 04:21:30;;;;;;;5.50;2.97;;;;;;;5.86;99.31;93715.91;5062961;28;20273;-74
2022/11/24 04:23:57;;;;;;;3.65;2.42;;;;;;;5.92;100.00;93717.34;5052500;28;20249;-73
2022/11/24 04:26:25;;;;;;;5.53;3.72;;;;;;;6.19;99.44;93726.91;5063240;28;20352;-73
2022/11/24 04:28:51;;;;;;;6.75;3.58;;;;;;;6.18;98.66;93731.50;5052620;28;20561;-73
2022/11/24 04:31:18;;;;;;;7.03;2.92;;;;;;;6.18;98.41;93728.81;5062854;28;20200;-74
2022/11/24 04:33:45;;;;;;;8.85;2.70;;;;;;;6.38;98.08;93730.00;5064084;28;20284;-73
2022/11/24 04:36:12;;;;;;;2.90;2.25;;;;;;;6.58;97.29;93731.16;5059263;28;20256;-75
2022/11/24 04:38:38;;;;;;;3.72;2.45;;;;;;;6.55;96.93;93729.16;5055956;28;20230;-75
2022/11/24 04:41:05;;;;;;;4.45;2.40;;;;;;;6.75;97.01;93723.00;5059547;28;20230;-75
2022/11/24 04:43:34;;;;;;;3.88;2.63;;;;;;;6.80;96.44;93728.22;5055505;28;20254;-75
2022/11/24 04:46:01;;;;;;;4.60;2.70;;;;;;;6.86;95.66;93721.50;5060277;28;20264;-73
2022/11/24 04:48:28;;;;;;;6.53;3.42;;;;;;;6.87;95.85;93731.16;5057195;28;20699;-73
2022/11/24 04:50:55;;;;;;;5.57;2.78;;;;;;;6.76;95.98;93724.59;5063886;28;20203;-73
2022/11/24 04:53:22;;;;;;;5.93;3.78;;;;;;;6.76;96.46;93730.75;5053559;28;20234;-73
2022/11/24 04:55:49;;;;;;;9.52;3.55;;;;;;;6.80;97.04;93722.84;5058824;28;20192;-73
2022/11/24 04:58:15;;;;;;;8.05;4.20;;;;;;;6.83;97.08;93730.25;5050507;28;20199;-73
2022/11/24 05:00:44;;;;;;;14.25;4.03;;;;;;;6.91;96.27;93734.00;5060419;28;20205;-74
2022/11/24 05:03:10;;;;;;;5.28;2.92;;;;;;;6.93;96.41;93734.47;5063029;28;20228;-74
2022/11/24 05:05:37;;;;;;;6.22;3.13;;;;;;;6.97;96.45;93741.53;5050729;28;20204;-74
2022/11/24 05:08:04;;;;;;;7.82;3.95;;;;;;;7.02;96.26;93733.28;5063964;28;20316;-74
2022/11/24 05:10:37;;;;;;;7.25;3.90;;;;;;;7.10;94.76;93737.06;5061361;28;20199;-74
2022/11/24 05:13:06;;;;;;;7.72;4.10;;;;;;;7.13;94.41;93739.06;5056955;28;20210;-74
2022/11/24 05:15:33;;;;;;;4.45;2.80;;;;;;;7.13;95.09;93739.88;5058633;28;20211;-74
2022/11/24 05:18:04;;;;;;;9.70;3.85;;;;;;;7.06;95.31;93739.59;5058399;28;20697;-74
2022/11/24 05:20:31;;;;;;;16.08;4.00;;;;;;;6.77;95.73;93748.47;5062903;28;20286;-75
2022/11/24 05:23:01;;;;;;;10.00;4.90;;;;;;;6.88;96.62;93745.41;5050974;28;20881;-74
2022/11/24 05:25:28;;;;;;;12.82;4.85;;;;;;;6.88;95.95;93746.19;5053319;28;20361;-73
2022/11/24 05:27:55;;;;;;;10.00;4.85;;;;;;;6.99;95.79;93750.09;5056705;28;20202;-74
2022/11/24 05:30:22;;;;;;;7.40;3.95;;;;;;;7.04;95.97;93741.84;5056816;28;20200;-75
2022/11/24 05:32:48;;;;;;;5.93;3.90;;;;;;;7.12;95.31;93759.81;5050029;28;20254;-75
2022/11/24 05:35:17;;;;;;;6.20;4.22;;;;;;;7.18;95.78;93757.75;5050124;28;20203;-74
2022/11/24 05:37:46;;;;;;;10.38;5.30;;;;;;;7.17;95.80;93749.97;5056660;28;20278;-75
2022/11/24 05:40:13;;;;;;;13.45;4.68;;;;;;;7.21;95.91;93764.38;5056866;28;20199;-74
2022/11/24 05:42:42;;;;;;;10.15;4.63;;;;;;;7.29;95.78;93763.53;5062441;28;20232;-74
2022/11/24 05:45:12;;;;;;;6.78;3.92;;;;;;;7.41;95.52;93755.50;5065013;28;20218;-75
2022/11/24 05:47:41;;;;;;;6.70;4.15;;;;;;;7.45;95.06;93756.44;5061224;28;20211;-73
2022/11/24 05:50:08;;;;;;;10.85;3.90;;;;;;;7.44;94.57;93760.25;5063182;28;20553;-75
2022/11/24 05:52:37;;;;;;;11.50;3.92;;;;;;;7.41;94.64;93760.91;5049966;28;20211;-75
2022/11/24 05:55:05;;;;;;;9.07;4.80;;;;;;;7.51;95.08;93765.91;5063237;28;20273;-75
2022/11/24 05:57:32;;;;;;;6.97;4.22;;;;;;;7.31;94.52;93767.47;5059785;28;20253;-75
2022/11/24 05:59:59;;;;;;;10.80;4.43;;;;;;;7.16;95.04;93764.56;5056625;28;20203;-74
2022/11/24 06:02:26;;;;;;;12.27;4.10;;;;;;;7.03;95.90;93772.56;5070288;28;20631;-74
2022/11/24 06:04:53;;;;;;;7.15;3.80;;;;;;;7.08;95.62;93771.59;5056720;28;20231;-74
2022/11/24 06:07:19;;;;;;;7.93;4.45;;;;;;;6.93;95.66;93783.72;5059712;28;20607;-74
2022/11/24 06:09:47;;;;;;;9.55;4.22;;;;;;;6.88;96.62;93781.19;5063430;28;20199;-74
2022/11/24 06:12:14;;;;;;;6.35;4.05;;;;;;;6.86;96.92;93783.41;5060433;28;20207;-75
2022/11/24 06:14:42;;;;;;;13.30;5.13;;;;;;;6.88;96.95;93786.59;5056429;28;20248;-73
2022/11/24 06:17:10;;;;;;;12.35;5.40;;;;;;;7.05;96.73;93783.81;5058492;28;20195;-75
2022/11/24 06:19:37;;;;;;;15.18;5.38;;;;;;;7.15;96.22;93779.94;5062862;28;20200;-74
2022/11/24 06:22:04;;;;;;;9.80;4.80;;;;;;;7.19;95.66;93785.47;5049461;28;20284;-74
2022/11/24 06:24:30;;;;;;;6.50;4.72;;;;;;;7.18;95.50;93784.69;5050056;28;20234;-75
2022/11/24 06:26:58;;;;;;;5.55;3.58;;;;;;;7.31;95.04;93796.31;5065828;28;20194;-74
2022/11/24 06:29:25;;;;;;;13.65;5.93;;;;;;;7.37;94.76;93797.72;5060261;28;20194;-74
2022/11/24 06:31:52;;;;;;;14.02;4.28;;;;;;;7.39;94.48;93795.44;5061607;28;20246;-75
2022/11/24 06:34:19;;;;;;;7.05;4.75;;;;;;;7.68;94.11;93803.47;5067182;28;20239;-74
2022/11/24 06:36:45;;;;;;;9.50;4.50;;;;;;;7.80;93.39;93805.44;5065932;28;20677;-74
2022/11/24 06:39:12;;;;;;;8.30;4.43;;;;;;;7.70;93.12;93806.66;5060607;28;20206;-74
2022/11/24 06:41:39;;;;;;;13.35;7.18;;;;;;;7.59;93.53;93808.16;5061460;28;20223;-74
2022/11/24 06:44:07;;;;;;;9.02;5.38;;;;;;;7.95;93.29;93818.31;5067203;28;20257;-73
2022/11/24 06:46:34;;;;;;;10.75;4.82;;;;;;;7.88;92.50;93828.06;5054115;28;20270;-74
2022/11/24 06:49:01;;;;;;;13.00;4.68;;;;;;;8.01;92.35;93833.19;5066794;28;20207;-75
2022/11/24 06:51:28;;;;;;;10.13;5.55;;;;;;;8.20;91.03;93840.78;5053644;28;20207;-75
2022/11/24 06:53:54;;;;;;;6.50;4.22;;;;;;;8.15;89.92;93838.31;5060697;28;20203;-77
2022/11/24 06:56:21;;;;;;;7.70;3.92;;;;;;;8.09;90.56;93845.00;5072296;28;20203;-74
2022/11/24 06:58:51;;;;;;;10.13;4.70;;;;;;;8.01;90.76;93848.59;5061817;28;20242;-75
2022/11/24 07:01:21;;;;;;;11.32;4.53;;;;;;;7.99;91.75;93850.81;5060288;28;20200;-74
2022/11/24 07:03:49;;;;;;;14.23;6.40;;;;;;;8.02;91.22;93850.16;5064495;28;20227;-75
2022/11/24 07:06:16;;;;;;;12.95;5.60;;;;;;;7.71;92.63;93856.75;5066763;28;20203;-74
2022/11/24 07:08:43;;;;;;;9.63;5.57;;;;;;;7.73;92.68;93870.69;5062628;28;20206;-75
2022/11/24 07:11:14;;;;;;;16.00;6.40;;;;;;;7.81;92.89;93867.13;5059223;28;20196;-73
2022/11/24 07:13:41;;;;;;;14.05;7.22;;;;;;;7.70;92.55;93871.34;5055633;28;21005;-73
2022/11/24 07:16:13;;;;;;;16.00;7.80;;;;;;;7.61;92.39;93877.91;5066099;28;20603;-74
2022/11/24 07:18:45;;;;;;;18.42;6.13;;;;;;;7.51;92.21;93879.09;5052491;28;20208;-73
2022/11/24 07:21:13;;;;;;;10.73;5.13;;;;;;;7.60;91.43;93887.91;5058222;28;20272;-74
2022/11/24 07:23:40;;;;;;;5.07;3.30;;;;;;;7.64;90.17;93872.66;5060029;28;20243;-74
2022/11/24 07:26:08;;;;;;;9.00;3.40;;;;;;;7.62;89.70;93880.28;5051695;28;20208;-74
2022/11/24 07:28:36;;;;;;;3.50;1.77;;;;;;;7.65;90.61;93882.31;5052319;28;20207;-74
2022/11/24 07:31:06;;;;;;;6.53;2.65;;;;;;;7.76;90.17;93882.72;5051625;28;20207;-74
2022/11/24 07:33:32;;;;;;;5.60;4.03;;;;;;;8.23;92.21;93887.91;5052064;28;20322;-74
2022/11/24 07:36:01;;;;;;;2.67;2.03;;;;;;;8.03;88.54;93890.28;5058567;28;20651;-74
2022/11/24 07:38:29;;;;;;;5.38;3.60;;;;;;;7.87;87.89;93908.16;5058335;28;20204;-74
2022/11/24 07:40:59;;;;;;;5.38;2.97;;;;;;;7.85;88.32;93900.41;5059885;28;20531;-74
2022/11/24 07:43:26;;;;;;;5.65;3.58;;;;;;;7.89;89.10;93905.16;5061244;28;20268;-73
2022/11/24 07:45:53;;;;;;;7.80;3.78;;;;;;;7.78;89.36;93905.53;5064082;28;20203;-74
2022/11/24 07:48:20;;;;;;;6.65;3.85;;;;;;;7.90;88.87;93906.72;5061187;28;20199;-74
2022/11/24 07:50:46;;;;;;;6.70;4.00;;;;;;;7.97;89.05;93910.47;5059827;28;20207;-73
2022/11/24 07:53:14;;;;;;;7.50;4.07;;;;;;;7.98;88.75;93913.97;5069975;28;20673;-74
2022/11/24 07:55:41;;;;;;;7.45;4.47;;;;;;;7.96;89.06;93921.59;5051831;28;20208;-74
2022/11/24 07:58:08;;;;;;;9.93;4.22;;;;;;;7.77;89.39;93930.91;5051467;28;20211;-73
2022/11/24 08:00:35;;;;;;;6.75;3.78;;;;;;;7.72;89.96;93939.19;5059353;28;20222;-73
2022/11/24 08:03:01;;;;;;;9.18;3.70;;;;;;;7.52;89.96;93929.13;5062143;28;20265;-74
2022/11/24 08:05:28;;;;;;;9.38;4.20;;;;;;;7.37;91.04;93943.19;5057080;28;20299;-74
2022/11/24 08:07:55;;;;;;;3.85;2.22;;;;;;;7.22;91.78;93946.41;5058748;28;20709;-74
2022/11/24 08:10:23;;;;;;;5.47;3.38;;;;;;;7.10;92.18;93945.19;5062601;28;20652;-75
2022/11/24 08:12:50;;;;;;;7.57;2.88;;;;;;;6.89;92.00;93948.88;5060198;28;20589;-74
2022/11/24 08:15:17;;;;;;;5.55;2.10;;;;;;;6.85;92.44;93964.88;5060547;28;20658;-74
2022/11/24 08:17:43;;;;;;;5.72;2.85;;;;;;;6.91;92.78;93962.81;5066448;28;20210;-74
2022/11/24 08:20:11;;;;;;;7.82;4.15;;;;;;;6.78;93.02;93969.97;5066225;28;20545;-74
2022/11/24 08:22:37;;;;;;;5.90;2.78;;;;;;;6.75;93.13;93967.91;5057623;28;20318;-73
2022/11/24 08:25:05;;;;;;;3.90;2.25;;;;;;;6.67;93.34;93974.09;5059693;28;20206;-74
2022/11/24 08:27:33;;;;;;;5.63;3.60;;;;;;;6.83;92.99;93972.50;5053935;28;20689;-73
2022/11/24 08:30:00;;;;;;;2.78;2.03;;;;;;;6.67;93.18;93974.09;5050454;28;20212;-74
2022/11/24 08:32:27;;;;;;;6.72;3.65;;;;;;;6.60;92.89;93979.16;5057550;28;20609;-74
2022/11/24 08:34:53;;;;;;;4.53;2.45;;;;;;;6.56;93.05;93981.69;5059676;28;20565;-74
2022/11/24 08:37:20;;;;;;;4.90;3.08;;;;;;;6.61;92.60;93988.81;5053640;28;20257;-74
2022/11/24 08:39:47;;;;;;;7.30;2.60;;;;;;;6.48;92.86;93989.78;5051727;28;20215;-74
2022/11/24 08:42:13;;;;;;;5.45;3.17;;;;;;;6.40;93.00;94008.31;5050384;28;20705;-73
2022/11/24 08:44:42;;;;;;;6.80;3.40;;;;;;;6.52;93.02;93998.81;5050594;28;20321;-74
2022/11/24 08:47:08;;;;;;;5.13;2.75;;;;;;;6.57;91.68;94009.41;5049776;28;20204;-75
2022/11/24 08:49:35;;;;;;;6.65;3.35;;;;;;;6.57;91.60;94012.88;5048247;28;20208;-72
2022/11/24 08:52:02;;;;;;;2.53;1.77;;;;;;;6.62;91.45;94010.03;5068478;28;20203;-73
2022/11/24 08:54:29;;;;;;;4.50;2.88;;;;;;;6.50;91.33;94017.97;5069690;28;20623;-74
2022/11/24 08:56:55;;;;;;;4.15;2.65;;;;;;;6.51;91.72;94013.38;5069651;28;20674;-71
2022/11/24 08:59:22;;;;;;;4.88;3.08;;;;;;;6.56;92.15;94026.69;5058315;28;20204;-73
2022/11/24 09:01:50;;;;;;;3.50;2.08;;;;;;;6.56;91.84;94021.28;5049122;28;20372;-72
2022/11/24 09:04:17;;;;;;;5.50;2.10;;;;;;;6.55;90.63;94017.81;5049567;28;20296;-74
2022/11/24 09:06:44;;;;;;;2.00;1.73;;;;;;;6.55;91.17;94025.88;5049555;28;20633;-74
2022/11/24 09:09:11;;;;;;;2.67;2.08;;;;;;;6.49;91.21;94010.19;5049943;28;20254;-75
2022/11/24 09:11:38;;;;;;;4.70;2.03;;;;;;;6.58;92.77;94019.84;5049512;28;20207;-75
2022/11/24 09:14:05;;;;;;;3.55;2.22;;;;;;;6.71;93.24;94018.09;5049365;28;20204;-73
2022/11/24 09:16:32;;;;;;;3.90;2.42;;;;;;;6.54;92.14;94018.13;5049182;28;20208;-75
2022/11/24 09:19:01;;;;;;;3.83;2.17;;;;;;;6.70;92.59;94021.88;5053172;28;20268;-75
2022/11/24 09:21:29;;;;;;;1.88;1.42;;;;;;;6.66;90.62;94023.66;5049324;28;20293;-75
2022/11/24 09:23:57;;;;;;;2.38;1.23;;;;;;;6.61;89.22;94010.34;5050121;28;20235;-74
2022/11/24 09:26:26;;;;;;;3.22;1.85;;;;;;;6.64;89.68;94017.78;5049026;28;20660;-76
2022/11/24 09:28:54;;;;;;;2.85;1.25;;;;;;;6.77;89.69;94023.00;5050091;28;20769;-75
2022/11/24 09:31:25;;;;;;;1.73;1.42;;;;;;;6.88;87.85;93999.25;5068585;28;20261;-75
2022/11/24 09:33:52;;;;;;;1.30;0.98;;;;;;;6.86;86.55;94014.91;5068785;28;20239;-73
2022/11/24 09:36:21;;;;;;;1.17;0.95;;;;;;;6.71;85.68;94015.41;5068951;28;20260;-74
2022/11/24 09:38:48;;;;;;;0.85;0.85;;;;;;;6.85;85.09;94018.72;5067332;28;20664;-74
2022/11/24 09:41:35;;;;;;;0.98;0.88;;;;;;;6.78;85.33;94024.59;5049382;28;20207;-76
2022/11/24 09:44:09;;;;;;;1.08;0.98;;;;;;;6.75;85.64;94033.31;5049399;28;20230;-75
2022/11/24 09:46:43;;;;;;;1.15;0.60;;;;;;;6.63;83.69;94026.97;5048408;28;20211;-74
2022/11/24 09:49:15;;;;;;;1.83;1.15;;;;;;;6.43;84.10;94031.88;5048504;28;20198;-74
2022/11/24 09:51:48;;;;;;;0.60;0.60;;;;;;;6.53;84.04;94030.00;5064554;28;20210;-75
2022/11/24 09:54:19;;;;;;;0.77;0.55;;;;;;;6.54;83.45;94029.69;5068747;28;20203;-77
2022/11/24 09:56:47;;;;;;;0.40;0.40;;;;;;;6.73;81.91;94032.03;5068002;28;20256;-74
2022/11/24 09:59:17;;;;;;;1.50;0.80;;;;;;;6.57;81.83;94034.41;5068804;28;20681;-74
2022/11/24 10:01:45;;;;;;;1.13;0.65;;;;;;;6.42;82.83;94038.34;5067717;28;20231;-75
2022/11/24 10:04:17;;;;;;;0.65;0.60;;;;;;;6.55;81.98;94030.47;5068969;28;20227;-76
2022/11/24 10:06:51;;;;;;;1.20;0.70;;;;;;;6.55;81.47;94033.16;5068578;28;20702;-76
2022/11/24 10:09:36;;;;;;;0.57;0.57;;;;;;;6.55;81.88;94028.56;5068879;28;20603;-77
2022/11/24 10:12:15;;;;;;;0.75;0.60;;;;;;;6.40;82.18;94040.59;5068965;28;20199;-74
2022/11/24 10:14:58;;;;;;;2.17;1.02;;;;;;;6.23;82.57;94035.19;5068856;28;20539;-74
2022/11/24 10:17:40;;;;;;;1.17;1.08;;;;;;;6.59;82.15;94029.50;5068646;28;20203;-74
2022/11/24 10:20:14;;;;;;;0.88;0.60;;;;;;;6.76;81.87;94031.41;5065131;28;20194;-73
2022/11/24 10:22:58;;;;;;;1.65;1.00;;;;;;;6.70;81.77;94027.28;5064275;28;20215;-73
2022/11/24 10:25:29;;;;;;;0.40;0.40;;;;;;;6.76;81.49;94032.19;5047829;28;20210;-74
2022/11/24 10:27:59;;;;;;;0.82;0.55;;;;;;;6.74;81.39;94041.69;5048098;28;20617;-73
2022/11/24 10:30:26;;;;;;;1.48;1.10;;;;;;;6.38;81.86;94045.50;5048224;28;20207;-73
2022/11/24 10:32:56;;;;;;;1.35;1.25;;;;;;;6.35;82.56;94046.13;5047437;28;20332;-75
2022/11/24 10:35:29;;;;;;;3.90;1.15;;;;;;;6.54;82.06;94039.66;5048999;28;20285;-75
2022/11/24 10:38:07;;;;;;;0.75;0.75;;;;;;;6.14;82.03;94041.66;5067949;28;20666;-75
2022/11/24 10:40:39;;;;;;;0.80;0.80;;;;;;;6.09;82.09;94045.28;5054503;28;20248;-74
2022/11/24 10:43:10;;;;;;;1.05;0.95;;;;;;;6.04;82.43;94048.91;5056674;28;20334;-73
2022/11/24 10:45:38;;;;;;;0.98;0.82;;;;;;;5.98;82.60;94034.03;5061704;28;20241;-72
2022/11/24 10:48:08;;;;;;;3.28;1.27;;;;;;;6.03;82.17;94046.53;5048138;28;20647;-74
2022/11/24 10:50:38;;;;;;;1.38;0.90;;;;;;;5.88;82.68;94039.69;5054553;28;20291;-75
2022/11/24 10:53:16;;;;;;;1.05;0.68;;;;;;;5.95;82.10;94045.41;5067988;28;20256;-74
2022/11/24 10:56:03;;;;;;;1.58;1.15;;;;;;;6.07;81.63;94047.50;5068092;28;20818;-75
2022/11/24 10:58:32;;;;;;;0.82;0.80;;;;;;;6.06;81.31;94043.22;5067220;28;20207;-75
2022/11/24 11:01:00;;;;;;;1.25;0.90;;;;;;;6.08;81.81;94054.44;5068374;28;20242;-76
2022/11/24 11:03:31;;;;;;;0.70;0.70;;;;;;;6.12;82.02;94044.66;5067233;28;20729;-78
2022/11/24 11:06:03;;;;;;;0.90;0.77;;;;;;;6.24;81.43;94042.16;5054842;28;20204;-78
2022/11/24 11:08:32;;;;;;;1.33;0.80;;;;;;;6.42;81.39;94048.34;5047921;28;20230;-77
2022/11/24 11:11:14;;;;;;;0.77;0.77;;;;;;;6.42;80.46;94046.41;5048554;28;20204;-75
2022/11/24 11:13:50;;;;;;;0.90;0.85;;;;;;;6.22;80.67;94049.75;5052613;28;20290;-76
2022/11/24 11:16:30;;;;;;;1.52;1.20;;;;;;;6.40;81.07;94054.03;5065200;28;20288;-75
2022/11/24 11:19:00;;;;;;;0.98;0.98;;;;;;;6.48;79.57;94048.97;5055284;28;20187;-75
2022/11/24 11:21:35;;;;;;;1.33;0.82;;;;;;;6.53;79.21;94048.81;5072045;28;20581;-73
2022/11/24 11:24:13;;;;;;;2.80;2.03;;;;;;;6.71;77.89;94043.09;5058096;28;20241;-72
2022/11/24 11:26:41;;;;;;;2.15;1.60;;;;;;;6.50;78.61;94061.00;5061232;28;20290;-75
2022/11/24 11:29:18;;;;;;;1.17;0.88;;;;;;;6.51;78.32;94049.13;5050365;28;20231;-74
2022/11/24 11:31:57;;;;;;;3.25;2.17;;;;;;;6.56;77.38;94058.97;5050946;28;20235;-72
2022/11/24 11:34:25;;;;;;;2.35;1.45;;;;;;;6.22;78.11;94060.50;5050956;28;20314;-75
2022/11/24 11:36:54;;;;;;;5.13;1.23;;;;;;;6.20;78.77;94041.19;5051074;28;20219;-74
2022/11/24 11:39:30;;;;;;;1.63;1.10;;;;;;;6.28;78.12;94070.00;5048686;28;20203;-74
2022/11/24 11:42:11;;;;;;;1.88;1.42;;;;;;;6.28;78.35;94075.38;5064394;28;20199;-74
2022/11/24 11:44:43;;;;;;;2.83;1.48;;;;;;;6.09;78.50;94066.78;5061459;28;20273;-74
2022/11/24 11:47:20;;;;;;;2.83;1.35;;;;;;;6.07;78.06;94067.09;5052406;28;20206;-73
2022/11/24 11:49:49;;;;;;;2.35;2.10;;;;;;;6.02;77.68;94077.19;5049721;28;20290;-72
2022/11/24 11:52:50;;;;;;;1.48;1.05;;;;;;;6.06;77.39;94068.22;5071326;28;20211;-75